Time;durP1;ratioP1;P1;durP2;ratioP2;P2;SDS_P1;SDS_P2;PMS_P1;PMS_P2;Temp;Humidity;BMP_temperature;BMP_pressure;BME280_temperature;BME280_humidity;BME280_pressure;Samples;Min_cycle;Max_cycle;Signal;HPM_P1;HPM_P2
2022/09/16 00:00:23;;;;;;;9.53;2.67;;;12.30;99.90;;;;;;5051695;28;20710;-76
2022/09/16 00:02:52;;;;;;;9.10;3.27;;;12.40;99.90;;;;;;5051231;28;20205;-76
2022/09/16 00:05:17;;;;;;;6.60;4.10;;;12.40;99.90;;;;;;5051670;28;20431;-77
2022/09/16 00:07:43;;;;;;;6.13;2.90;;;12.40;99.90;;;;;;5051265;28;20436;-76
2022/09/16 00:10:09;;;;;;;12.03;3.87;;;12.40;99.90;;;;;;5051463;28;20178;-76
2022/09/16 00:12:35;;;;;;;6.57;3.47;;;12.40;99.90;;;;;;5051192;28;20545;-76
2022/09/16 00:15:01;;;;;;;8.07;3.37;;;12.40;99.90;;;;;;5050887;28;20588;-74
2022/09/16 00:17:28;;;;;;;5.63;2.70;;;12.40;99.90;;;;;;5051188;28;20280;-76
2022/09/16 00:19:55;;;;;;;14.73;3.70;;;12.40;99.90;;;;;;5051075;28;20251;-76
2022/09/16 00:22:20;;;;;;;6.50;3.20;;;12.40;99.90;;;;;;5050931;28;20455;-74
2022/09/16 00:24:48;;;;;;;5.20;3.33;;;12.40;99.90;;;;;;5051446;28;20923;-76
2022/09/16 00:27:14;;;;;;;6.20;2.90;;;12.40;99.90;;;;;;5051147;28;20224;-76
2022/09/16 00:29:39;;;;;;;5.13;2.77;;;12.40;99.90;;;;;;5051413;28;21090;-76
2022/09/16 00:32:05;;;;;;;12.53;3.17;;;12.50;99.90;;;;;;5050734;28;20177;-76
2022/09/16 00:34:31;;;;;;;4.70;3.17;;;12.40;99.90;;;;;;5051190;28;20540;-76
2022/09/16 00:47:02;;;;;;;4.93;3.00;;;12.40;99.90;;;;;;5050762;28;20484;-76
2022/09/16 00:49:30;;;;;;;4.70;2.90;;;12.40;99.90;;;;;;5050860;28;20503;-76
2022/09/16 00:52:04;;;;;;;5.40;2.70;;;12.40;99.90;;;;;;5050273;28;20642;-76
2022/09/16 00:54:31;;;;;;;5.37;2.57;;;12.30;99.90;;;;;;5032952;28;20451;-76
2022/09/16 00:56:59;;;;;;;6.60;2.27;;;12.40;99.90;;;;;;5058923;28;20442;-77
2022/09/16 00:59:28;;;;;;;7.83;3.03;;;12.40;99.90;;;;;;5054443;28;20498;-76
2022/09/16 01:01:57;;;;;;;5.80;3.00;;;12.40;99.90;;;;;;5050332;28;21017;-76
2022/09/16 01:04:28;;;;;;;4.23;2.77;;;12.40;99.90;;;;;;5050536;28;20931;-76
2022/09/16 01:06:55;;;;;;;7.23;3.30;;;12.40;99.90;;;;;;5050496;28;20841;-76
2022/09/16 01:09:24;;;;;;;4.90;2.73;;;12.40;99.90;;;;;;5050778;28;20474;-76
2022/09/16 01:11:50;;;;;;;6.30;3.03;;;12.40;99.90;;;;;;5050017;28;20458;-76
2022/09/16 01:17:32;;;;;;;5.93;3.77;;;12.50;99.90;;;;;;5051084;28;20581;-76
2022/09/16 01:20:16;;;;;;;6.90;3.23;;;12.40;99.90;;;;;;5051219;28;20432;-76
2022/09/16 01:23:10;;;;;;;6.33;2.93;;;12.50;99.90;;;;;;5050490;28;20484;-75
2022/09/16 01:26:08;;;;;;;6.43;3.23;;;12.50;99.90;;;;;;5032680;28;20518;-75
2022/09/16 01:28:53;;;;;;;6.13;3.10;;;12.50;99.90;;;;;;4994243;28;20437;-77
2022/09/16 01:31:47;;;;;;;4.67;2.93;;;12.50;99.90;;;;;;5050197;28;20523;-77
2022/09/16 01:34:31;;;;;;;5.37;3.03;;;12.50;99.90;;;;;;5038555;28;20460;-76
2022/09/16 01:37:06;;;;;;;6.63;2.43;;;12.50;99.90;;;;;;5050493;28;20490;-76
2022/09/16 01:39:32;;;;;;;7.87;2.73;;;12.40;99.90;;;;;;5050598;28;20427;-76
2022/09/16 01:42:15;;;;;;;9.57;3.20;;;12.40;99.90;;;;;;5049870;28;20470;-76
2022/09/16 01:45:07;;;;;;;6.50;3.30;;;12.40;99.90;;;;;;5050172;28;20178;-75
2022/09/16 01:47:58;;;;;;;5.33;3.33;;;12.40;99.90;;;;;;5050224;28;20464;-76
2022/09/16 01:50:30;;;;;;;5.63;3.20;;;12.40;99.90;;;;;;5021448;28;20428;-74
2022/09/16 01:53:11;;;;;;;6.53;3.20;;;12.40;99.90;;;;;;5053423;28;20447;-77
2022/09/16 01:55:46;;;;;;;8.90;3.70;;;12.40;99.90;;;;;;5054097;28;20431;-75
2022/09/16 01:58:16;;;;;;;8.57;4.77;;;12.40;99.90;;;;;;5054136;28;20443;-76
2022/09/16 02:00:45;;;;;;;7.93;3.43;;;12.40;99.90;;;;;;5054098;28;20466;-76
2022/09/16 02:03:34;;;;;;;5.50;2.90;;;12.40;99.90;;;;;;5035757;28;20416;-76
2022/09/16 02:06:06;;;;;;;7.13;4.10;;;12.40;99.90;;;;;;5035874;28;20804;-76
2022/09/16 02:08:36;;;;;;;11.23;3.80;;;12.40;99.90;;;;;;5053817;28;20483;-76
2022/09/16 02:11:07;;;;;;;4.87;3.07;;;12.40;99.90;;;;;;5053662;28;20565;-75
2022/09/16 02:13:54;;;;;;;6.83;3.93;;;12.30;99.90;;;;;;5053266;28;20435;-76
2022/09/16 02:16:27;;;;;;;5.30;2.90;;;12.30;99.90;;;;;;5053901;28;20412;-76
2022/09/16 02:19:00;;;;;;;5.30;2.90;;;12.20;99.90;;;;;;5053730;28;20480;-76
2022/09/16 02:21:30;;;;;;;5.90;3.60;;;12.20;99.90;;;;;;5053358;28;20467;-76
2022/09/16 02:24:00;;;;;;;6.07;3.43;;;12.20;99.90;;;;;;5035325;28;21012;-76
2022/09/16 02:26:35;;;;;;;6.17;3.20;;;12.10;99.90;;;;;;5053531;28;20426;-76
2022/09/16 02:29:05;;;;;;;7.30;2.97;;;12.10;99.90;;;;;;5053491;28;20420;-78
2022/09/16 02:31:33;;;;;;;7.63;3.67;;;12.00;99.90;;;;;;5053247;28;20526;-77
2022/09/16 02:34:13;;;;;;;6.93;3.60;;;12.00;99.90;;;;;;5053205;28;20959;-77
2022/09/16 02:36:42;;;;;;;4.63;2.40;;;12.00;99.90;;;;;;5053443;28;20966;-76
2022/09/16 02:39:10;;;;;;;6.83;3.27;;;12.00;99.90;;;;;;5053413;28;20935;-77
2022/09/16 02:41:39;;;;;;;5.20;3.37;;;11.90;99.90;;;;;;5034894;28;20483;-77
2022/09/16 02:44:05;;;;;;;6.40;3.77;;;11.90;99.90;;;;;;5053244;28;20923;-76
2022/09/16 02:47:06;;;;;;;5.40;3.33;;;11.80;99.90;;;;;;5053201;28;20429;-76
2022/09/16 02:49:55;;;;;;;5.20;3.10;;;11.80;99.90;;;;;;5052989;28;20450;-77
2022/09/16 02:52:38;;;;;;;7.73;3.70;;;11.80;99.90;;;;;;5052782;28;20440;-76
2022/09/16 02:55:16;;;;;;;6.37;3.87;;;11.80;99.90;;;;;;5053079;28;20477;-76
2022/09/16 02:57:42;;;;;;;8.13;3.53;;;11.80;99.90;;;;;;5065965;28;20471;-78
2022/09/16 03:00:08;;;;;;;6.90;3.57;;;11.80;99.90;;;;;;5035007;28;20454;-76
2022/09/16 03:02:34;;;;;;;7.07;2.93;;;11.70;99.90;;;;;;5052076;28;20206;-76
2022/09/16 03:05:02;;;;;;;8.80;3.80;;;11.70;99.90;;;;;;5052859;28;20558;-76
2022/09/16 03:07:28;;;;;;;7.27;3.93;;;11.70;99.90;;;;;;5034850;28;20447;-74
2022/09/16 03:09:53;;;;;;;8.27;4.43;;;11.80;99.90;;;;;;5052721;28;20425;-77
2022/09/16 03:12:43;;;;;;;7.03;3.87;;;11.80;99.90;;;;;;5052479;28;20184;-76
2022/09/16 03:15:16;;;;;;;6.33;3.70;;;11.80;99.90;;;;;;5034510;28;20190;-76
2022/09/16 03:17:59;;;;;;;6.77;3.30;;;11.90;99.90;;;;;;5052343;28;20444;-76
2022/09/16 03:20:46;;;;;;;6.17;3.70;;;11.90;99.90;;;;;;5052532;28;20428;-76
2022/09/16 03:23:48;;;;;;;6.03;3.67;;;12.00;99.90;;;;;;5034310;28;20439;-77
2022/09/16 03:26:38;;;;;;;7.03;4.03;;;12.00;99.90;;;;;;5042038;28;20506;-76
2022/09/16 03:29:16;;;;;;;6.20;3.33;;;12.10;99.90;;;;;;5052422;28;20408;-76
2022/09/16 03:32:37;;;;;;;6.93;4.13;;;12.10;99.90;;;;;;5052192;28;20423;-76
2022/09/16 03:35:15;;;;;;;5.93;4.03;;;12.10;99.90;;;;;;5008397;28;20455;-76
2022/09/16 03:37:43;;;;;;;8.67;4.23;;;12.20;99.90;;;;;;5065839;28;20428;-80
2022/09/16 03:40:12;;;;;;;7.67;4.30;;;12.10;99.90;;;;;;5058984;28;20421;-80
2022/09/16 03:42:40;;;;;;;6.30;3.60;;;12.10;99.90;;;;;;5069571;28;20463;-79
2022/09/16 03:45:07;;;;;;;5.10;2.70;;;12.20;99.90;;;;;;5079418;28;20424;-79
2022/09/16 03:47:33;;;;;;;7.13;3.43;;;12.10;99.90;;;;;;5068374;28;20464;-79
2022/09/16 03:49:59;;;;;;;7.70;3.80;;;12.10;99.90;;;;;;5059513;28;20501;-74
2022/09/16 03:52:24;;;;;;;9.93;3.97;;;12.10;99.90;;;;;;5043899;28;20579;-75
2022/09/16 03:54:50;;;;;;;5.10;3.10;;;12.20;99.90;;;;;;5051813;28;20197;-74
2022/09/16 03:57:16;;;;;;;10.43;4.77;;;12.20;99.90;;;;;;5053222;28;20700;-76
2022/09/16 03:59:41;;;;;;;14.00;3.40;;;12.20;99.90;;;;;;5053137;28;20189;-76
2022/09/16 04:02:07;;;;;;;9.03;4.57;;;12.20;99.90;;;;;;5052325;28;20241;-76
2022/09/16 04:04:32;;;;;;;6.43;4.00;;;12.20;99.90;;;;;;5048219;28;20181;-76
2022/09/16 04:06:58;;;;;;;7.23;4.23;;;12.20;99.90;;;;;;5042233;28;20200;-76
2022/09/16 04:09:23;;;;;;;5.47;3.70;;;12.30;99.90;;;;;;5051502;28;20185;-76
2022/09/16 04:11:49;;;;;;;10.20;4.10;;;12.30;99.90;;;;;;5033356;28;20189;-76
2022/09/16 04:14:15;;;;;;;6.87;3.50;;;12.30;99.90;;;;;;5050424;28;20243;-76
2022/09/16 04:16:40;;;;;;;6.87;3.70;;;12.30;99.90;;;;;;5051604;28;20209;-76
2022/09/16 04:19:06;;;;;;;10.70;3.70;;;12.30;99.90;;;;;;5051482;28;20220;-76
2022/09/16 04:21:32;;;;;;;7.23;3.43;;;12.30;99.90;;;;;;5033246;28;20305;-74
2022/09/16 04:23:58;;;;;;;4.60;2.87;;;12.30;99.90;;;;;;5033366;28;20207;-77
2022/09/16 04:26:24;;;;;;;5.83;3.23;;;12.30;99.90;;;;;;5051502;28;20947;-77
2022/09/16 04:28:53;;;;;;;21.77;4.00;;;12.30;99.90;;;;;;5051365;28;20455;-76
2022/09/16 04:31:20;;;;;;;6.90;4.10;;;12.30;99.90;;;;;;5051187;28;20340;-76
2022/09/16 04:33:45;;;;;;;9.20;3.80;;;12.30;99.90;;;;;;5051285;28;20425;-76
2022/09/16 04:36:16;;;;;;;4.93;3.23;;;12.30;99.90;;;;;;5051234;28;20977;-75
2022/09/16 04:38:43;;;;;;;17.83;3.60;;;12.30;99.90;;;;;;5051231;28;20181;-76
2022/09/16 04:41:15;;;;;;;5.07;3.37;;;12.30;99.90;;;;;;5049448;28;20979;-76
2022/09/16 04:43:41;;;;;;;77.63;17.53;;;12.30;99.90;;;;;;5051203;28;20466;-76
2022/09/16 04:46:07;;;;;;;8.90;3.30;;;12.30;99.90;;;;;;5033260;28;20421;-76
2022/09/16 04:48:34;;;;;;;15.00;2.60;;;12.30;99.90;;;;;;5051262;28;20274;-76
2022/09/16 04:51:08;;;;;;;15.33;3.60;;;12.30;99.90;;;;;;5050633;28;20420;-75
2022/09/16 04:53:35;;;;;;;4.77;3.37;;;12.30;99.90;;;;;;5050602;28;20586;-76
2022/09/16 04:56:04;;;;;;;10.50;3.80;;;12.40;99.90;;;;;;5052329;28;20420;-77
2022/09/16 04:58:30;;;;;;;6.50;3.73;;;12.40;99.90;;;;;;5020237;28;20530;-77
2022/09/16 05:00:55;;;;;;;5.17;3.17;;;12.40;99.90;;;;;;5032738;28;20578;-76
2022/09/16 05:03:21;;;;;;;4.27;2.57;;;12.30;99.90;;;;;;5050662;28;20188;-77
2022/09/16 05:05:47;;;;;;;5.87;3.57;;;12.30;99.90;;;;;;5050657;28;20285;-75
2022/09/16 05:08:12;;;;;;;8.60;3.10;;;12.30;99.90;;;;;;5050850;28;20201;-74
2022/09/16 05:10:38;;;;;;;11.97;3.10;;;12.30;99.90;;;;;;5050609;28;20182;-75
2022/09/16 05:13:03;;;;;;;6.47;3.40;;;12.30;99.90;;;;;;5050656;28;20556;-75
2022/09/16 05:15:29;;;;;;;3.37;2.37;;;12.30;99.90;;;;;;5050165;28;20205;-75
2022/09/16 05:17:54;;;;;;;4.10;2.50;;;12.40;99.90;;;;;;5034355;28;20221;-76
2022/09/16 05:20:20;;;;;;;8.70;3.53;;;12.40;99.90;;;;;;5050955;28;20189;-76
2022/09/16 05:22:49;;;;;;;5.70;2.30;;;12.30;99.90;;;;;;5050515;28;20627;-76
2022/09/16 05:25:15;;;;;;;7.27;3.37;;;12.30;99.90;;;;;;5046485;28;20204;-76
2022/09/16 05:27:41;;;;;;;3.30;2.20;;;12.30;99.90;;;;;;5036735;28;20436;-78
2022/09/16 05:30:07;;;;;;;5.60;2.87;;;12.30;99.90;;;;;;5054312;28;20645;-76
2022/09/16 05:32:33;;;;;;;8.07;3.57;;;12.40;99.90;;;;;;5054676;28;20178;-76
2022/09/16 05:34:58;;;;;;;7.73;3.80;;;12.40;99.90;;;;;;5054461;28;20474;-76
2022/09/16 05:37:24;;;;;;;7.60;3.70;;;12.40;99.90;;;;;;5054649;28;20206;-76
2022/09/16 05:39:49;;;;;;;8.03;3.67;;;12.30;99.90;;;;;;5054436;28;20178;-78
2022/09/16 05:42:15;;;;;;;8.30;3.90;;;12.30;99.90;;;;;;5036212;28;20308;-74
2022/09/16 05:44:40;;;;;;;11.20;3.37;;;12.40;99.90;;;;;;5041427;28;20658;-76
2022/09/16 05:47:06;;;;;;;4.47;2.17;;;12.30;99.90;;;;;;5054493;28;20296;-77
2022/09/16 05:49:32;;;;;;;10.07;2.90;;;12.30;99.90;;;;;;5052394;28;20239;-78
2022/09/16 05:51:57;;;;;;;5.70;2.00;;;12.20;99.90;;;;;;5041242;28;20197;-76
2022/09/16 05:54:23;;;;;;;3.63;2.40;;;12.20;99.90;;;;;;5036831;28;20193;-76
2022/09/16 05:56:50;;;;;;;4.30;2.63;;;12.20;99.90;;;;;;5037315;28;20222;-76
2022/09/16 05:59:16;;;;;;;7.10;3.37;;;12.20;99.90;;;;;;5054524;28;20795;-76
2022/09/16 06:01:42;;;;;;;3.43;2.27;;;12.20;99.90;;;;;;5053948;28;20475;-76
2022/09/16 06:04:11;;;;;;;3.70;2.03;;;12.10;99.90;;;;;;5054790;28;20420;-76
2022/09/16 06:06:39;;;;;;;6.33;3.40;;;12.10;99.90;;;;;;5038752;28;20448;-76
2022/09/16 06:09:11;;;;;;;3.50;2.20;;;12.10;99.90;;;;;;5055104;28;20412;-76
2022/09/16 06:11:39;;;;;;;6.10;3.33;;;12.10;99.90;;;;;;5054434;28;20426;-76
2022/09/16 06:14:06;;;;;;;5.43;2.87;;;12.10;99.90;;;;;;5054068;28;20419;-77
2022/09/16 06:16:32;;;;;;;4.80;3.30;;;12.10;99.90;;;;;;5054456;28;20416;-77
2022/09/16 06:19:00;;;;;;;5.07;3.60;;;12.10;99.90;;;;;;5055228;28;20478;-76
2022/09/16 06:21:27;;;;;;;4.80;3.10;;;12.00;99.90;;;;;;5049606;28;20455;-77
2022/09/16 06:23:52;;;;;;;9.80;4.13;;;12.00;99.90;;;;;;5050266;28;20412;-77
2022/09/16 06:26:24;;;;;;;3.83;2.07;;;12.00;99.90;;;;;;5042533;28;20984;-77
2022/09/16 06:28:50;;;;;;;5.57;2.60;;;12.00;99.90;;;;;;5054211;28;21262;-77
2022/09/16 06:31:18;;;;;;;4.03;2.17;;;12.00;99.90;;;;;;5035200;28;20931;-77
2022/09/16 06:33:44;;;;;;;5.07;3.00;;;11.90;99.90;;;;;;5052118;28;20420;-77
2022/09/16 06:36:16;;;;;;;4.80;2.87;;;12.00;99.90;;;;;;5040624;28;20412;-77
2022/09/16 06:38:43;;;;;;;14.17;2.93;;;11.90;99.90;;;;;;5047152;28;20268;-79
2022/09/16 06:41:10;;;;;;;11.70;2.77;;;12.00;99.90;;;;;;5033762;28;20840;-78
2022/09/16 06:43:36;;;;;;;5.30;2.80;;;12.00;99.90;;;;;;5052820;28;20435;-77
2022/09/16 06:46:12;;;;;;;9.90;3.80;;;11.90;99.90;;;;;;5053453;28;20424;-77
2022/09/16 06:48:39;;;;;;;5.60;3.10;;;11.90;99.90;;;;;;5053420;28;20464;-76
2022/09/16 06:51:16;;;;;;;4.17;2.57;;;11.80;99.90;;;;;;5050846;28;20420;-79
2022/09/16 06:53:43;;;;;;;5.33;2.80;;;11.90;99.90;;;;;;5041865;28;20843;-77
2022/09/16 06:56:13;;;;;;;5.60;3.70;;;11.90;99.90;;;;;;5054605;28;20408;-78
2022/09/16 06:58:41;;;;;;;4.00;2.73;;;11.90;99.90;;;;;;5064125;28;20463;-76
2022/09/16 07:01:08;;;;;;;8.67;3.23;;;11.90;99.90;;;;;;5050828;28;20800;-77
2022/09/16 07:03:37;;;;;;;8.03;3.37;;;11.90;99.90;;;;;;5054386;28;20765;-77
2022/09/16 07:06:03;;;;;;;8.10;3.17;;;11.90;99.90;;;;;;5038716;28;20463;-77
2022/09/16 07:08:31;;;;;;;7.10;2.90;;;11.80;99.90;;;;;;5051005;28;20902;-79
2022/09/16 07:10:58;;;;;;;4.70;2.97;;;11.90;99.90;;;;;;5051983;28;20466;-77
2022/09/16 07:13:24;;;;;;;5.10;3.30;;;11.90;99.90;;;;;;5052153;28;20412;-79
2022/09/16 07:15:50;;;;;;;5.40;2.40;;;11.80;99.90;;;;;;5051640;28;20434;-78
2022/09/16 07:18:16;;;;;;;9.33;2.60;;;11.80;99.90;;;;;;5052819;28;20299;-80
2022/09/16 07:20:41;;;;;;;4.37;1.80;;;11.70;99.90;;;;;;5050531;28;20235;-79
2022/09/16 07:23:07;;;;;;;5.80;2.50;;;11.60;99.90;;;;;;5049057;28;20290;-78
2022/09/16 07:25:32;;;;;;;3.93;2.10;;;11.60;99.90;;;;;;5034282;28;20188;-79
2022/09/16 07:27:58;;;;;;;9.63;2.17;;;11.50;99.90;;;;;;5032989;28;20285;-80
2022/09/16 07:30:24;;;;;;;7.67;3.00;;;11.50;99.90;;;;;;5033269;28;20182;-80
2022/09/16 07:32:49;;;;;;;4.63;2.20;;;11.40;99.90;;;;;;5028838;28;20269;-79
2022/09/16 07:35:15;;;;;;;6.30;3.33;;;11.30;99.90;;;;;;5053939;28;20253;-79
2022/09/16 07:37:40;;;;;;;6.00;3.37;;;11.50;99.90;;;;;;5050758;28;20870;-80
2022/09/16 07:40:07;;;;;;;6.70;2.57;;;11.50;99.90;;;;;;5035034;28;20186;-79
2022/09/16 07:42:32;;;;;;;4.07;2.37;;;11.40;99.90;;;;;;5051270;28;20198;-80
2022/09/16 07:44:58;;;;;;;4.20;2.20;;;11.40;99.90;;;;;;5045714;28;20417;-80
2022/09/16 07:47:24;;;;;;;6.23;3.30;;;11.40;99.90;;;;;;5044213;28;20205;-77
2022/09/16 07:49:54;;;;;;;6.33;2.10;;;11.40;99.90;;;;;;5039505;28;20181;-81
2022/09/16 07:52:21;;;;;;;3.30;1.90;;;11.40;99.90;;;;;;5036728;28;20474;-78
2022/09/16 07:54:49;;;;;;;5.73;2.73;;;11.30;99.90;;;;;;5045324;28;20451;-77
2022/09/16 07:57:15;;;;;;;6.10;2.37;;;11.40;99.90;;;;;;5049569;28;20459;-78
2022/09/16 07:59:40;;;;;;;7.17;2.60;;;11.40;99.90;;;;;;5050462;28;20432;-78
2022/09/16 08:02:06;;;;;;;4.10;2.67;;;11.50;99.90;;;;;;5025294;28;20591;-78
2022/09/16 08:04:31;;;;;;;7.10;3.00;;;11.40;99.90;;;;;;5045212;28;20182;-79
2022/09/16 08:06:57;;;;;;;4.67;2.53;;;11.50;99.90;;;;;;5045639;28;20209;-79
2022/09/16 08:09:23;;;;;;;4.10;2.53;;;11.60;99.90;;;;;;5040819;28;20663;-76
2022/09/16 08:11:48;;;;;;;8.00;2.57;;;11.60;99.90;;;;;;5018761;28;20193;-77
2022/09/16 08:14:14;;;;;;;6.20;3.20;;;11.60;99.90;;;;;;5041488;28;20182;-79
2022/09/16 08:16:40;;;;;;;5.57;3.30;;;11.60;99.90;;;;;;5044814;28;20236;-78
2022/09/16 08:19:05;;;;;;;4.77;3.17;;;11.60;99.90;;;;;;5047510;28;20269;-78
2022/09/16 08:21:31;;;;;;;5.20;2.90;;;11.70;99.90;;;;;;5047248;28;20205;-76
2022/09/16 08:23:57;;;;;;;6.00;3.27;;;11.80;99.90;;;;;;5044076;28;20725;-78
2022/09/16 08:26:23;;;;;;;4.70;2.50;;;11.90;99.90;;;;;;5050038;28;20420;-78
2022/09/16 08:28:50;;;;;;;6.63;2.73;;;12.00;99.90;;;;;;5020898;28;20304;-78
2022/09/16 08:31:17;;;;;;;6.03;2.70;;;12.00;99.90;;;;;;5048234;28;20424;-78
2022/09/16 08:33:43;;;;;;;9.13;4.00;;;12.10;99.90;;;;;;5050282;28;20527;-75
2022/09/16 08:36:09;;;;;;;8.13;3.50;;;12.10;99.90;;;;;;5048639;28;20451;-78
2022/09/16 08:38:34;;;;;;;7.13;3.53;;;12.10;99.90;;;;;;5049911;28;20940;-78
2022/09/16 08:41:20;;;;;;;7.97;4.00;;;12.20;99.90;;;;;;5040737;28;20239;-75
2022/09/16 08:44:12;;;;;;;5.20;3.07;;;12.30;99.90;;;;;;5047458;28;20251;-78
2022/09/16 08:46:52;;;;;;;4.53;2.73;;;12.30;99.90;;;;;;5048386;28;20444;-78
2022/09/16 08:49:38;;;;;;;6.67;3.40;;;12.30;99.90;;;;;;5048705;28;20463;-78
2022/09/16 08:52:11;;;;;;;6.50;3.40;;;12.20;99.90;;;;;;5046377;28;20443;-77
2022/09/16 08:54:44;;;;;;;4.60;3.00;;;12.20;99.90;;;;;;5050429;28;20578;-78
2022/09/16 08:57:16;;;;;;;6.67;3.60;;;12.10;99.90;;;;;;5050313;28;20447;-79
2022/09/16 08:59:47;;;;;;;13.53;3.40;;;12.10;99.90;;;;;;5047976;28;20477;-78
2022/09/16 09:02:31;;;;;;;6.47;3.80;;;12.10;99.90;;;;;;5028660;28;20455;-79
2022/09/16 09:04:57;;;;;;;5.77;2.83;;;12.10;99.90;;;;;;5046280;28;20436;-80
2022/09/16 09:07:40;;;;;;;7.23;3.93;;;12.10;99.90;;;;;;5031246;28;20464;-79
2022/09/16 09:10:12;;;;;;;7.90;3.27;;;12.20;99.90;;;;;;5043754;28;20893;-79
2022/09/16 09:12:44;;;;;;;9.73;3.60;;;12.20;99.90;;;;;;5048523;28;20440;-80
2022/09/16 09:15:34;;;;;;;12.23;4.17;;;12.20;99.90;;;;;;5044286;28;20440;-79
2022/09/16 09:18:20;;;;;;;4.83;2.73;;;12.20;99.90;;;;;;5045497;28;20482;-79
2022/09/16 09:20:58;;;;;;;8.03;3.67;;;12.20;99.90;;;;;;5047254;28;22192;-79
2022/09/16 09:23:45;;;;;;;3.80;2.57;;;12.20;99.90;;;;;;5034979;28;20448;-78
2022/09/16 09:26:19;;;;;;;5.67;3.10;;;12.20;99.90;;;;;;5048025;28;20433;-79
2022/09/16 09:29:16;;;;;;;10.03;2.97;;;12.10;99.90;;;;;;5042002;28;20428;-81
2022/09/16 09:32:14;;;;;;;17.43;2.60;;;12.10;99.90;;;;;;5044755;28;20502;-79
2022/09/16 09:35:13;;;;;;;4.50;2.53;;;12.10;99.90;;;;;;5043605;28;20448;-79
2022/09/16 09:38:09;;;;;;;3.87;2.03;;;12.10;99.90;;;;;;5027918;28;20522;-80
2022/09/16 09:40:44;;;;;;;6.40;2.60;;;12.10;99.90;;;;;;5047815;28;20505;-79
2022/09/16 09:43:15;;;;;;;4.03;2.77;;;12.10;99.90;;;;;;5047248;28;20466;-81
2022/09/16 09:46:26;;;;;;;4.47;1.93;;;12.10;99.90;;;;;;5024178;28;20436;-81
2022/09/16 09:49:29;;;;;;;7.47;2.50;;;12.10;99.90;;;;;;5041462;28;20948;-78
2022/09/16 09:51:57;;;;;;;3.70;2.07;;;12.00;99.90;;;;;;5042966;28;20455;-81
2022/09/16 09:54:34;;;;;;;3.57;1.90;;;12.10;99.90;;;;;;5030646;28;20447;-79
2022/09/16 09:57:45;;;;;;;3.93;2.17;;;12.10;99.90;;;;;;5048551;28;20453;-79
2022/09/16 10:00:16;;;;;;;4.23;1.50;;;12.20;99.90;;;;;;5047810;28;20481;-79
2022/09/16 10:02:43;;;;;;;4.37;2.67;;;12.20;99.90;;;;;;5044530;28;20478;-80
2022/09/16 10:05:29;;;;;;;5.70;2.10;;;12.30;99.90;;;;;;5025526;28;20438;-81
2022/09/16 10:07:58;;;;;;;4.70;2.00;;;12.60;99.90;;;;;;5041822;28;21112;-79
2022/09/16 10:10:28;;;;;;;4.23;2.20;;;12.80;99.90;;;;;;5045173;28;20429;-80
2022/09/16 10:12:53;;;;;;;3.50;1.80;;;12.70;99.90;;;;;;5046357;28;20795;-80
2022/09/16 10:15:22;;;;;;;4.60;2.60;;;12.80;99.90;;;;;;5033664;28;20971;-80
2022/09/16 10:17:49;;;;;;;10.10;2.40;;;12.80;99.90;;;;;;5050290;28;20646;-79
2022/09/16 10:20:40;;;;;;;3.73;2.20;;;12.80;99.90;;;;;;5050887;28;20416;-81
2022/09/16 10:23:13;;;;;;;3.70;2.10;;;12.80;99.90;;;;;;5042825;28;20870;-79
2022/09/16 10:25:40;;;;;;;5.73;2.77;;;12.80;99.90;;;;;;5032084;28;20436;-79
2022/09/16 10:28:19;;;;;;;4.20;2.60;;;12.80;99.90;;;;;;5042950;28;20459;-78
2022/09/16 10:30:48;;;;;;;220.00;105.20;;;12.90;99.90;;;;;;5050852;28;20436;-80
2022/09/16 10:33:35;;;;;;;5.77;3.13;;;13.00;99.90;;;;;;5051280;28;20429;-80
2022/09/16 10:36:04;;;;;;;5.70;3.03;;;13.10;99.90;;;;;;5045358;28;20431;-79
2022/09/16 10:38:42;;;;;;;5.13;2.37;;;13.10;99.90;;;;;;5051185;28;20889;-78
2022/09/16 10:41:18;;;;;;;2.90;1.30;;;13.20;99.90;;;;;;5049987;28;20428;-77
2022/09/16 10:43:55;;;;;;;3.63;1.60;;;13.10;99.90;;;;;;5050579;28;20517;-78
2022/09/16 10:46:21;;;;;;;4.20;2.20;;;13.00;99.90;;;;;;5045483;28;20438;-78
2022/09/16 10:48:48;;;;;;;2.77;1.40;;;13.00;99.90;;;;;;5051863;28;20440;-79
2022/09/16 10:51:24;;;;;;;2.93;1.33;;;12.90;99.90;;;;;;5050313;28;20722;-79
2022/09/16 10:54:02;;;;;;;4.00;1.83;;;12.90;99.90;;;;;;5029933;28;20436;-78
2022/09/16 10:56:48;;;;;;;4.00;1.40;;;12.90;99.90;;;;;;5044306;28;20482;-79
2022/09/16 10:59:14;;;;;;;3.50;1.77;;;12.90;99.90;;;;;;5050213;28;20523;-79
2022/09/16 11:01:49;;;;;;;2.60;1.37;;;13.00;99.90;;;;;;5032528;28;20873;-78
2022/09/16 11:04:20;;;;;;;3.33;1.20;;;13.10;99.90;;;;;;5049340;28;20177;-78
2022/09/16 11:07:02;;;;;;;2.00;1.30;;;13.10;99.90;;;;;;5038940;28;20952;-78
2022/09/16 11:09:33;;;;;;;3.40;1.70;;;13.10;99.90;;;;;;5033730;28;20440;-78
2022/09/16 11:11:59;;;;;;;2.53;1.80;;;13.00;99.90;;;;;;5044949;28;20524;-78
2022/09/16 11:14:33;;;;;;;5.87;2.63;;;13.00;99.90;;;;;;5042757;28;20659;-79
2022/09/16 11:17:10;;;;;;;3.50;1.43;;;12.90;99.90;;;;;;5042945;28;20197;-78
2022/09/16 11:19:44;;;;;;;5.53;1.23;;;12.90;99.90;;;;;;5050823;28;20420;-78
2022/09/16 11:22:26;;;;;;;2.43;1.07;;;12.90;99.90;;;;;;5049115;28;20494;-76
2022/09/16 11:25:13;;;;;;;2.97;1.40;;;13.00;99.90;;;;;;5021228;28;20433;-78
2022/09/16 11:27:44;;;;;;;3.40;1.27;;;12.90;99.90;;;;;;5048447;28;20498;-78
2022/09/16 11:30:18;;;;;;;1.60;0.90;;;13.00;99.90;;;;;;5050333;28;20936;-78
2022/09/16 11:33:15;;;;;;;3.93;1.10;;;13.00;99.90;;;;;;5038962;28;20946;-78
2022/09/16 11:36:02;;;;;;;2.43;1.30;;;13.00;99.90;;;;;;5049594;28;20432;-78
2022/09/16 11:38:52;;;;;;;3.40;1.70;;;13.20;99.90;;;;;;5020478;28;20445;-78
2022/09/16 11:41:18;;;;;;;1.70;0.70;;;13.40;99.90;;;;;;5026111;28;20515;-78
2022/09/16 11:44:11;;;;;;;2.30;1.10;;;13.50;99.90;;;;;;5048988;28;20491;-78
2022/09/16 11:46:52;;;;;;;3.23;1.20;;;13.60;99.90;;;;;;5045018;28;20584;-78
2022/09/16 11:49:38;;;;;;;1.87;1.10;;;13.70;99.90;;;;;;5051718;28;20938;-78
2022/09/16 11:52:21;;;;;;;8.03;1.50;;;13.70;99.90;;;;;;5050699;28;20444;-78
2022/09/16 11:55:06;;;;;;;3.97;1.40;;;13.70;99.90;;;;;;5051587;28;20420;-78
2022/09/16 11:57:37;;;;;;;2.63;1.30;;;13.70;99.90;;;;;;5053352;28;20440;-76
2022/09/16 12:00:11;;;;;;;3.50;1.03;;;13.60;99.90;;;;;;5051520;28;20558;-78
2022/09/16 12:02:56;;;;;;;12.37;0.90;;;13.60;99.90;;;;;;5050656;28;20840;-77
2022/09/16 12:05:32;;;;;;;2.37;1.07;;;13.70;99.90;;;;;;5045735;28;20412;-77
2022/09/16 12:08:03;;;;;;;3.43;0.73;;;13.90;99.90;;;;;;5050852;28;20444;-78
2022/09/16 12:10:46;;;;;;;4.23;1.23;;;14.10;99.90;;;;;;5051344;28;21037;-77
2022/09/16 12:13:27;;;;;;;11.73;1.60;;;14.40;99.90;;;;;;5018942;28;20429;-76
2022/09/16 12:15:57;;;;;;;1.70;0.93;;;14.60;99.90;;;;;;5062862;28;20415;-78
2022/09/16 12:18:54;;;;;;;4.13;1.30;;;14.70;99.90;;;;;;5051788;28;20459;-78
2022/09/16 12:21:20;;;;;;;3.53;1.40;;;14.60;99.90;;;;;;5062755;28;20486;-78
2022/09/16 12:23:58;;;;;;;2.60;1.10;;;14.60;99.90;;;;;;5056927;28;20439;-79
2022/09/16 12:26:30;;;;;;;2.53;1.13;;;14.70;99.90;;;;;;5051620;28;20695;-78
2022/09/16 12:29:18;;;;;;;2.07;0.93;;;14.40;99.90;;;;;;5044494;28;20416;-77
2022/09/16 12:32:04;;;;;;;2.50;0.77;;;14.30;99.90;;;;;;5045137;28;20828;-77
2022/09/16 12:34:52;;;;;;;1.97;0.93;;;14.30;99.90;;;;;;5020711;28;20478;-77
2022/09/16 12:37:43;;;;;;;2.93;1.10;;;14.30;99.90;;;;;;5045060;28;20776;-77
2022/09/16 12:40:44;;;;;;;4.20;0.90;;;14.30;99.90;;;;;;5049797;28;20415;-78
2022/09/16 12:43:29;;;;;;;6.33;1.87;;;14.30;99.90;;;;;;4971007;28;20550;-78
2022/09/16 12:46:35;;;;;;;3.93;1.67;;;14.30;99.90;;;;;;5051133;28;20750;-77
2022/09/16 12:49:36;;;;;;;2.30;0.70;;;14.30;99.90;;;;;;5024027;28;20464;-78
2022/09/16 12:52:29;;;;;;;3.60;1.50;;;14.30;99.90;;;;;;5046950;28;20447;-75
2022/09/16 12:55:03;;;;;;;5.53;1.23;;;14.40;99.90;;;;;;5048841;28;20938;-76
2022/09/16 12:58:09;;;;;;;4.30;1.10;;;14.50;99.90;;;;;;5047416;28;20444;-75
2022/09/16 13:00:40;;;;;;;2.93;1.00;;;14.50;99.90;;;;;;5011140;28;20436;-75
2022/09/16 13:03:15;;;;;;;2.17;1.03;;;14.50;99.90;;;;;;5050399;28;20495;-76
2022/09/16 13:05:49;;;;;;;2.30;1.13;;;14.70;99.90;;;;;;5015289;28;20491;-77
2022/09/16 13:08:30;;;;;;;1.43;0.70;;;14.90;99.90;;;;;;5047109;28;20444;-74
2022/09/16 13:11:04;;;;;;;4.47;1.30;;;15.00;99.90;;;;;;5027767;28;20428;-75
2022/09/16 13:13:40;;;;;;;4.53;1.20;;;15.00;99.40;;;;;;5051102;28;20428;-76
2022/09/16 13:16:07;;;;;;;3.20;1.20;;;15.10;98.70;;;;;;5032642;28;20431;-77
2022/09/16 13:18:45;;;;;;;7.53;1.43;;;15.00;96.30;;;;;;5058065;28;20439;-76
2022/09/16 13:21:19;;;;;;;2.90;1.50;;;15.40;98.50;;;;;;5035351;28;20424;-76
2022/09/16 13:23:51;;;;;;;2.03;0.83;;;16.00;97.20;;;;;;5030779;28;20450;-76
2022/09/16 13:26:16;;;;;;;2.13;0.70;;;16.40;94.90;;;;;;5045852;28;21222;-75
2022/09/16 13:28:44;;;;;;;2.43;1.07;;;16.40;94.10;;;;;;5023530;28;20447;-77